createdAt,value
2018-08-09T00:00:09.344Z,12.87
2018-08-09T00:02:41.975Z,13.83
2018-08-09T00:05:10.451Z,13.33
2018-08-09T00:07:42.537Z,15.53
2018-08-09T00:10:11.051Z,13.77
2018-08-09T00:12:39.696Z,14.18
2018-08-09T00:15:08.154Z,13.23
2018-08-09T00:17:36.553Z,14.40
2018-08-09T00:20:05.156Z,14.90
2018-08-09T00:22:33.616Z,13.27
2018-08-09T00:25:01.989Z,13.30
2018-08-09T00:27:30.450Z,15.98
2018-08-09T00:29:58.941Z,17.27
2018-08-09T00:32:27.369Z,16.67
2018-08-09T00:34:55.776Z,14.90
2018-08-09T00:37:24.178Z,14.00
2018-08-09T00:39:52.648Z,16.07
2018-08-09T00:42:21.052Z,14.17
2018-08-09T00:44:49.586Z,16.80
2018-08-09T00:47:18.685Z,15.07
2018-08-09T00:49:47.269Z,15.33
2018-08-09T00:52:15.620Z,14.65
2018-08-09T00:54:43.983Z,15.00
2018-08-09T00:57:12.448Z,14.83
2018-08-09T00:59:44.674Z,16.00
2018-08-09T01:02:13.307Z,13.85
2018-08-09T01:04:41.720Z,14.87
2018-08-09T01:07:10.112Z,15.00
2018-08-09T01:09:38.534Z,14.90
2018-08-09T01:12:07.027Z,15.40
2018-08-09T01:14:36.454Z,17.13
2018-08-09T01:17:04.902Z,14.87
2018-08-09T01:19:33.341Z,14.37
2018-08-09T01:22:01.744Z,17.10
2018-08-09T01:24:30.157Z,16.93
2018-08-09T01:26:58.671Z,16.50
2018-08-09T01:29:27.067Z,15.83
2018-08-09T01:31:55.477Z,16.13
2018-08-09T01:34:23.916Z,16.07
2018-08-09T01:36:52.300Z,16.63
2018-08-09T01:39:20.703Z,15.60
2018-08-09T01:42:00.292Z,17.20
2018-08-09T01:44:28.724Z,16.37
2018-08-09T01:46:57.745Z,16.73
2018-08-09T01:49:26.188Z,16.00
2018-08-09T01:51:54.705Z,16.53
2018-08-09T01:54:24.192Z,19.80
2018-08-09T01:56:56.988Z,16.23
2018-08-09T01:59:26.150Z,15.63
2018-08-09T02:01:55.239Z,16.23
2018-08-09T02:04:23.666Z,16.20
2018-08-09T02:06:52.164Z,16.07
2018-08-09T02:09:25.993Z,18.57
2018-08-09T02:11:54.432Z,17.80
2018-08-09T02:14:22.852Z,16.37
2018-08-09T02:16:51.253Z,16.27
2018-08-09T02:19:19.674Z,15.80
2018-08-09T02:21:48.720Z,17.02
2018-08-09T02:24:17.118Z,16.90
2018-08-09T02:26:45.608Z,17.90
2018-08-09T02:29:14.052Z,17.80
2018-08-09T02:31:42.469Z,17.37
2018-08-09T02:34:10.866Z,20.07
2018-08-09T02:36:39.232Z,18.97
2018-08-09T02:39:08.929Z,15.65
2018-08-09T02:41:37.327Z,16.70
2018-08-09T02:44:05.764Z,17.07
2018-08-09T02:46:34.352Z,18.10
2018-08-09T02:49:02.722Z,20.80
2018-08-09T02:51:31.138Z,17.37
2018-08-09T02:53:59.560Z,30.70
2018-08-09T02:56:28.004Z,17.03
2018-08-09T02:58:56.553Z,17.40
2018-08-09T03:01:24.992Z,18.27
2018-08-09T03:03:53.454Z,16.97
2018-08-09T03:06:21.903Z,18.10
2018-08-09T03:08:50.323Z,19.33
2018-08-09T03:11:18.787Z,18.40
2018-08-09T03:13:47.227Z,18.10
2018-08-09T03:16:15.648Z,20.02
2018-08-09T03:18:44.088Z,16.60
2018-08-09T03:21:12.528Z,17.27
2018-08-09T03:23:40.964Z,17.50
2018-08-09T03:26:09.433Z,16.20
2018-08-09T03:28:37.829Z,17.20
2018-08-09T03:31:06.488Z,19.13
2018-08-09T03:33:34.855Z,17.17
2018-08-09T03:36:03.315Z,17.83
2018-08-09T03:38:31.745Z,17.23
2018-08-09T03:41:00.172Z,18.33
2018-08-09T03:43:28.656Z,18.02
2018-08-09T03:45:57.037Z,17.55
2018-08-09T03:48:25.384Z,18.77
2018-08-09T03:50:53.858Z,16.77
2018-08-09T03:53:22.562Z,22.40
2018-08-09T03:55:51.070Z,16.63
2018-08-09T03:58:19.552Z,16.63
2018-08-09T04:00:48.156Z,18.33
2018-08-09T04:03:16.683Z,17.37
2018-08-09T04:05:45.109Z,19.13
2018-08-09T04:08:13.944Z,19.60
2018-08-09T04:10:42.410Z,15.90
2018-08-09T04:13:10.923Z,20.67
2018-08-09T04:15:39.426Z,17.63
2018-08-09T04:18:08.084Z,18.10
2018-08-09T04:20:36.884Z,17.15
2018-08-09T04:23:05.372Z,16.32
2018-08-09T04:25:33.791Z,17.00
2018-08-09T04:28:02.569Z,16.93
2018-08-09T04:30:30.991Z,16.77
2018-08-09T04:32:59.728Z,17.70
2018-08-09T04:35:28.143Z,16.37
2018-08-09T04:37:56.610Z,14.93
2018-08-09T04:40:24.996Z,17.20
2018-08-09T04:42:54.372Z,15.87
2018-08-09T04:45:22.890Z,17.40
2018-08-09T04:47:51.259Z,16.73
2018-08-09T04:50:19.716Z,16.35
2018-08-09T04:52:48.110Z,16.23
2018-08-09T04:55:16.552Z,18.45
2018-08-09T04:57:45.018Z,18.32
2018-08-09T05:00:13.457Z,17.13
2018-08-09T05:02:41.865Z,18.20
2018-08-09T05:05:10.336Z,18.55
2018-08-09T05:07:38.810Z,18.67
2018-08-09T05:10:09.196Z,16.03
2018-08-09T05:12:41.046Z,18.90
2018-08-09T05:15:09.971Z,20.00
2018-08-09T05:17:38.356Z,16.33
2018-08-09T05:20:07.190Z,18.30
2018-08-09T05:22:35.791Z,17.00
2018-08-09T05:25:04.823Z,18.45
2018-08-09T05:27:34.797Z,18.40
2018-08-09T05:30:03.570Z,17.03
2018-08-09T05:32:31.995Z,16.40
2018-08-09T05:35:01.594Z,16.87
2018-08-09T05:37:30.517Z,17.03
2018-08-09T05:39:58.957Z,21.47
2018-08-09T05:42:27.448Z,17.62
2018-08-09T05:44:55.840Z,16.40
2018-08-09T05:47:24.288Z,18.93
2018-08-09T05:49:52.712Z,19.30
2018-08-09T05:52:21.180Z,17.12
2018-08-09T05:54:49.665Z,18.50
2018-08-09T05:57:18.149Z,18.67
2018-08-09T05:59:46.600Z,20.50
2018-08-09T06:02:15.075Z,21.57
2018-08-09T06:04:43.501Z,17.90
2018-08-09T06:07:15.329Z,17.63
2018-08-09T06:09:43.830Z,17.73
2018-08-09T06:12:12.305Z,18.13
2018-08-09T06:14:40.712Z,19.23
2018-08-09T06:17:09.222Z,17.03
2018-08-09T06:19:37.613Z,16.93
2018-08-09T06:22:06.492Z,18.63
2018-08-09T06:24:34.887Z,20.20
2018-08-09T06:27:03.832Z,17.53
2018-08-09T06:29:32.474Z,18.67
2018-08-09T06:32:00.865Z,16.97
2018-08-09T06:34:29.301Z,17.27
2018-08-09T06:36:57.773Z,18.27
2018-08-09T06:39:26.369Z,17.37
2018-08-09T06:41:54.812Z,18.67
2018-08-09T06:44:23.237Z,16.43
2018-08-09T06:46:51.655Z,17.27
2018-08-09T06:49:20.126Z,17.17
2018-08-09T06:51:49.714Z,16.02
2018-08-09T06:54:18.143Z,17.13
2018-08-09T06:56:48.847Z,16.70
2018-08-09T06:59:17.201Z,21.13
2018-08-09T07:01:45.616Z,15.98
2018-08-09T07:04:14.888Z,16.23
2018-08-09T07:06:43.474Z,15.37
2018-08-09T07:09:12.041Z,15.93
2018-08-09T07:11:40.457Z,14.93
2018-08-09T07:14:08.851Z,16.27
2018-08-09T07:16:37.296Z,14.30
2018-08-09T07:19:05.896Z,16.47
2018-08-09T07:21:34.335Z,15.00
2018-08-09T07:24:02.829Z,13.53
2018-08-09T07:26:31.323Z,18.33
2018-08-09T07:28:59.743Z,16.12
2018-08-09T07:31:28.130Z,13.23
2018-08-09T07:33:56.589Z,13.60
2018-08-09T07:36:25.097Z,13.83
2018-08-09T07:38:53.536Z,15.83
2018-08-09T07:41:22.041Z,16.30
2018-08-09T07:43:50.477Z,11.68
2018-08-09T07:46:18.871Z,12.77
2018-08-09T07:48:47.413Z,18.13
2018-08-09T07:51:15.822Z,13.17
2018-08-09T07:53:44.252Z,12.23
2018-08-09T07:56:12.740Z,16.80
2018-08-09T07:58:41.157Z,14.63
2018-08-09T08:01:09.848Z,11.43
2018-08-09T08:03:38.327Z,13.33
2018-08-09T08:06:07.103Z,13.60
2018-08-09T08:08:35.560Z,14.83
2018-08-09T08:11:04.869Z,10.27
2018-08-09T08:13:33.723Z,12.00
2018-08-09T08:16:02.295Z,14.73
2018-08-09T08:18:30.691Z,10.67
2018-08-09T08:20:59.157Z,11.17
2018-08-09T08:23:27.591Z,13.43
2018-08-09T08:25:56.100Z,10.07
2018-08-09T08:28:24.558Z,10.55
2018-08-09T08:30:53.777Z,12.82
2018-08-09T08:33:22.321Z,11.07
2018-08-09T08:35:50.939Z,10.93
2018-08-09T08:38:19.682Z,10.68
2018-08-09T08:40:48.149Z,9.50
2018-08-09T08:43:16.572Z,9.13
2018-08-09T08:45:45.037Z,11.05
2018-08-09T08:48:13.466Z,9.47
2018-08-09T08:50:42.428Z,8.70
2018-08-09T08:53:10.869Z,9.80
2018-08-09T08:55:39.239Z,10.17
2018-08-09T08:58:07.717Z,10.83
2018-08-09T09:00:36.170Z,11.10
2018-08-09T09:03:04.688Z,9.88
2018-08-09T09:05:33.148Z,11.85
2018-08-09T09:08:01.558Z,10.30
2018-08-09T09:10:30.038Z,17.37
2018-08-09T09:12:58.508Z,8.68
2018-08-09T09:15:26.924Z,16.30
2018-08-09T09:17:55.340Z,9.30
2018-08-09T09:20:23.779Z,9.63
2018-08-09T09:22:52.243Z,10.73
2018-08-09T09:25:21.421Z,11.10
2018-08-09T09:27:49.850Z,13.93
2018-08-09T09:30:18.691Z,9.20
2018-08-09T09:32:47.348Z,12.60
2018-08-09T09:35:16.183Z,12.10
2018-08-09T09:37:45.258Z,15.30
2018-08-09T09:40:13.687Z,11.80
2018-08-09T09:42:42.610Z,12.73
2018-08-09T09:45:11.002Z,8.03
2018-08-09T09:47:39.430Z,12.98
2018-08-09T09:50:09.286Z,17.83
2018-08-09T09:52:37.748Z,9.57
2018-08-09T09:55:06.293Z,8.60
2018-08-09T09:57:34.819Z,8.30
2018-08-09T10:00:03.905Z,10.00
2018-08-09T10:02:32.293Z,14.20
2018-08-09T10:05:00.716Z,7.33
2018-08-09T10:07:29.081Z,7.10
2018-08-09T10:09:57.476Z,7.90
2018-08-09T10:12:25.899Z,16.90
2018-08-09T10:14:54.341Z,11.53
2018-08-09T10:17:22.829Z,9.53
2018-08-09T10:19:51.260Z,9.33
2018-08-09T10:22:19.685Z,10.63
2018-08-09T10:24:48.114Z,10.33
2018-08-09T10:27:16.571Z,12.13
2018-08-09T10:29:44.949Z,10.77
2018-08-09T10:32:13.432Z,9.67
2018-08-09T10:34:41.858Z,8.00
2018-08-09T10:37:10.309Z,11.23
2018-08-09T10:39:38.686Z,8.93
2018-08-09T10:42:07.111Z,9.48
2018-08-09T10:44:35.574Z,6.40
2018-08-09T10:47:04.141Z,9.80
2018-08-09T10:49:32.564Z,11.97
2018-08-09T10:52:00.940Z,10.40
2018-08-09T10:54:29.360Z,14.33
2018-08-09T10:56:57.821Z,11.30
2018-08-09T10:59:26.261Z,10.30
2018-08-09T11:01:54.688Z,15.20
2018-08-09T11:04:23.096Z,11.23
2018-08-09T11:06:51.470Z,8.60
2018-08-09T11:09:19.894Z,14.27
2018-08-09T11:11:48.353Z,8.10
2018-08-09T11:14:16.814Z,11.57
2018-08-09T11:16:45.207Z,8.83
2018-08-09T11:19:13.671Z,8.28
2018-08-09T11:21:42.068Z,7.90
2018-08-09T11:24:10.459Z,8.00
2018-08-09T11:26:40.476Z,12.23
2018-08-09T11:29:08.875Z,6.60
2018-08-09T11:31:37.288Z,11.95
2018-08-09T11:34:05.788Z,10.70
2018-08-09T11:36:34.169Z,10.90
2018-08-09T11:39:02.657Z,11.57
2018-08-09T11:41:31.065Z,8.00
2018-08-09T11:43:59.453Z,7.77
2018-08-09T11:46:27.932Z,7.80
2018-08-09T11:48:56.479Z,12.50
2018-08-09T11:51:24.889Z,8.38
2018-08-09T11:53:53.304Z,10.67
2018-08-09T11:56:21.693Z,11.40
2018-08-09T11:58:50.055Z,9.63
2018-08-09T12:01:18.606Z,11.97
2018-08-09T12:03:47.070Z,7.73
2018-08-09T12:06:15.534Z,7.50
2018-08-09T12:08:43.896Z,8.17
2018-08-09T12:11:12.322Z,5.20
2018-08-09T12:13:40.816Z,14.87
2018-08-09T12:16:09.273Z,8.17
2018-08-09T12:18:37.654Z,7.07
2018-08-09T12:21:06.983Z,7.93
2018-08-09T12:23:35.901Z,7.20
2018-08-09T12:26:04.420Z,8.10
2018-08-09T12:28:32.807Z,6.10
2018-08-09T12:31:03.368Z,7.07
2018-08-09T12:33:31.817Z,6.40
2018-08-09T12:36:00.227Z,9.40
2018-08-09T12:38:29.335Z,5.80
2018-08-09T12:40:59.531Z,4.93
2018-08-09T12:43:27.993Z,5.40
2018-08-09T12:45:56.415Z,6.40
2018-08-09T12:48:24.919Z,5.33
2018-08-09T12:50:53.391Z,7.93
2018-08-09T12:53:21.834Z,14.23
2018-08-09T12:55:50.224Z,5.80
2018-08-09T12:58:18.696Z,5.80
2018-08-09T13:00:47.133Z,5.23
2018-08-09T13:03:15.701Z,5.03
2018-08-09T13:05:44.157Z,4.67
2018-08-09T13:08:12.633Z,5.77
2018-08-09T13:10:41.102Z,6.83
2018-08-09T13:13:09.568Z,9.70
2018-08-09T13:15:38.021Z,5.97
2018-08-09T13:18:08.544Z,7.65
2018-08-09T13:20:37.013Z,6.33
2018-08-09T13:23:05.533Z,7.10
2018-08-09T13:25:34.042Z,8.70
2018-08-09T13:28:02.558Z,6.33
2018-08-09T13:30:31.688Z,35.00
2018-08-09T13:33:00.848Z,33.23
2018-08-09T13:35:29.619Z,16.50
2018-08-09T13:37:58.201Z,15.53
2018-08-09T13:40:26.668Z,8.93
2018-08-09T13:43:01.079Z,11.40
2018-08-09T13:45:29.631Z,13.50
2018-08-09T13:47:58.169Z,9.13
2018-08-09T13:50:26.618Z,6.20
2018-08-09T13:52:55.026Z,4.70
2018-08-09T13:55:23.463Z,11.07
2018-08-09T13:57:52.004Z,5.43
2018-08-09T14:00:20.430Z,6.80
2018-08-09T14:02:49.036Z,4.53
2018-08-09T14:05:17.572Z,3.40
2018-08-09T14:07:46.461Z,5.40
2018-08-09T14:10:14.990Z,6.90
2018-08-09T14:12:43.473Z,3.90
2018-08-09T14:15:13.643Z,3.73
2018-08-09T14:17:42.022Z,3.53
2018-08-09T14:20:14.606Z,3.87
2018-08-09T14:22:43.088Z,4.33
2018-08-09T14:25:11.943Z,5.45
2018-08-09T14:27:40.492Z,3.80
2018-08-09T14:30:12.057Z,6.80
2018-08-09T14:32:40.513Z,5.20
2018-08-09T14:35:11.596Z,8.60
2018-08-09T14:37:40.539Z,10.93
2018-08-09T14:40:10.045Z,9.40
2018-08-09T14:42:38.676Z,7.80
2018-08-09T14:45:14.996Z,3.70
2018-08-09T14:47:44.740Z,7.90
2018-08-09T14:50:16.740Z,8.57
2018-08-09T14:52:45.224Z,4.53
2018-08-09T14:55:13.908Z,5.17
2018-08-09T14:57:45.313Z,6.17
2018-08-09T15:03:01.305Z,10.50
2018-08-09T15:05:29.768Z,4.20
2018-08-09T15:07:58.225Z,4.27
2018-08-09T15:10:27.917Z,4.03
2018-08-09T15:12:56.433Z,7.87
2018-08-09T15:15:24.952Z,7.43
2018-08-09T15:17:53.451Z,4.30
2018-08-09T15:20:21.910Z,6.63
2018-08-09T15:22:50.480Z,4.57
2018-08-09T15:25:18.921Z,4.13
2018-08-09T15:27:47.682Z,5.20
2018-08-09T15:30:17.936Z,4.67
2018-08-09T15:32:46.893Z,4.63
2018-08-09T15:35:15.562Z,4.35
2018-08-09T15:37:44.605Z,6.90
2018-08-09T15:40:13.805Z,6.50
2018-08-09T15:42:43.096Z,5.03
2018-08-09T15:45:13.293Z,5.50
2018-08-09T15:47:42.112Z,5.53
2018-08-09T15:50:13.688Z,5.73
2018-08-09T15:52:42.669Z,8.10
2018-08-09T15:55:11.358Z,5.90
2018-08-09T15:57:40.954Z,8.30
2018-08-09T16:00:12.789Z,6.77
2018-08-09T16:02:41.670Z,4.90
2018-08-09T16:05:11.121Z,2.87
2018-08-09T16:07:39.648Z,7.10
2018-08-09T16:10:11.733Z,7.70
2018-08-09T16:12:41.012Z,2.73
2018-08-09T16:15:13.806Z,3.17
2018-08-09T16:17:42.710Z,9.87
2018-08-09T16:20:12.013Z,6.13
2018-08-09T16:22:41.093Z,3.93
2018-08-09T16:25:12.479Z,4.40
2018-08-09T16:27:40.917Z,4.97
2018-08-09T16:30:14.054Z,2.37
2018-08-09T16:32:43.341Z,4.22
2018-08-09T16:35:12.615Z,4.80
2018-08-09T16:37:41.908Z,2.30
2018-08-09T16:40:17.122Z,2.40
2018-08-09T16:42:48.605Z,2.33
2018-08-09T16:45:20.304Z,4.17
2018-08-09T16:47:52.474Z,2.20
2018-08-09T16:50:24.239Z,2.77
2018-08-09T16:52:56.004Z,3.67
2018-08-09T16:55:27.238Z,4.75
2018-08-09T16:57:55.879Z,2.35
2018-08-09T17:00:25.109Z,2.70
2018-08-09T17:02:54.507Z,3.43
2018-08-09T17:05:24.246Z,2.13
2018-08-09T17:07:52.761Z,1.97
2018-08-09T17:10:22.704Z,2.50
2018-08-09T17:12:51.404Z,2.98
2018-08-09T17:15:23.508Z,2.10
2018-08-09T17:17:52.711Z,3.23
2018-08-09T17:20:24.464Z,4.87
2018-08-09T17:22:52.927Z,7.53
2018-08-09T17:25:21.447Z,6.50
2018-08-09T17:27:50.385Z,3.40
2018-08-09T17:30:20.192Z,3.10
2018-08-09T17:32:48.721Z,2.00
2018-08-09T17:35:18.073Z,3.03
2018-08-09T17:37:46.521Z,5.83
2018-08-09T17:40:23.514Z,4.80
2018-08-09T17:42:52.972Z,3.60
2018-08-09T17:45:24.608Z,4.80
2018-08-09T17:47:53.182Z,2.90
2018-08-09T17:50:21.748Z,4.07
2018-08-09T17:52:50.327Z,5.03
2018-08-09T17:55:18.952Z,3.43
2018-08-09T17:57:47.713Z,3.17
2018-08-09T18:00:24.823Z,5.30
2018-08-09T18:02:53.790Z,2.67
2018-08-09T18:05:22.583Z,6.78
2018-08-09T18:07:51.365Z,2.70
2018-08-09T18:10:24.837Z,3.37
2018-08-09T18:12:54.794Z,2.93
2018-08-09T18:15:25.692Z,2.40
2018-08-09T18:17:54.623Z,2.47
2018-08-09T18:20:25.140Z,2.80
2018-08-09T18:22:53.725Z,3.40
2018-08-09T18:25:22.218Z,3.10
2018-08-09T18:27:50.804Z,5.00
2018-08-09T18:30:19.956Z,2.30
2018-08-09T18:32:48.533Z,3.63
2018-08-09T18:35:18.604Z,3.23
2018-08-09T18:37:47.034Z,4.60
2018-08-09T18:40:21.290Z,3.67
2018-08-09T18:42:49.822Z,4.13
2018-08-09T18:45:18.585Z,2.00
2018-08-09T18:47:47.150Z,3.23
2018-08-09T18:50:19.853Z,2.73
2018-08-09T18:52:48.375Z,2.53
2018-08-09T18:55:17.965Z,4.13
2018-08-09T18:57:46.424Z,3.57
2018-08-09T19:00:21.799Z,2.73
2018-08-09T19:02:52.042Z,2.97
2018-08-09T19:05:20.588Z,4.40
2018-08-09T19:07:49.118Z,1.90
2018-08-09T19:10:21.097Z,2.20
2018-08-09T19:12:50.144Z,1.90
2018-08-09T19:15:18.875Z,2.40
2018-08-09T19:17:47.412Z,4.77
2018-08-09T19:20:20.319Z,1.97
2018-08-09T19:22:48.894Z,2.97
2018-08-09T19:25:17.486Z,2.80
2018-08-09T19:27:46.028Z,3.30
2018-08-09T19:30:16.083Z,4.70
2018-08-09T19:32:44.633Z,2.77
2018-08-09T19:35:14.690Z,2.77
2018-08-09T19:37:43.237Z,2.00
2018-08-09T19:40:13.172Z,2.63
2018-08-09T19:42:41.803Z,6.60
2018-08-09T19:45:13.778Z,2.40
2018-08-09T19:47:42.326Z,3.07
2018-08-09T19:50:12.940Z,2.63
2018-08-09T19:52:43.962Z,2.40
2018-08-09T19:55:15.004Z,2.43
2018-08-09T19:57:44.691Z,3.40
2018-08-09T20:00:16.392Z,2.60
2018-08-09T20:02:46.339Z,3.43
2018-08-09T20:05:14.836Z,2.03
2018-08-09T20:07:43.962Z,2.03
2018-08-09T20:10:14.753Z,2.58
2018-08-09T20:12:44.061Z,3.00
2018-08-09T20:15:25.531Z,2.90
2018-08-09T20:17:54.610Z,2.30
2018-08-09T20:20:25.372Z,2.60
2018-08-09T20:22:53.906Z,3.63
2018-08-09T20:25:22.368Z,2.63
2018-08-09T20:27:50.821Z,2.30
2018-08-09T20:30:23.787Z,2.70
2018-08-09T20:32:52.259Z,2.10
2018-08-09T20:35:22.593Z,3.03
2018-08-09T20:37:51.323Z,2.50
2018-08-09T20:40:22.399Z,2.60
2018-08-09T20:42:51.806Z,2.17
2018-08-09T20:45:21.630Z,2.30
2018-08-09T20:47:50.432Z,4.53
2018-08-09T20:50:28.425Z,2.08
2018-08-09T20:52:56.897Z,1.77
2018-08-09T20:55:25.700Z,3.42
2018-08-09T20:57:55.764Z,2.20
2018-08-09T21:00:31.420Z,2.00
2018-08-09T21:03:00.683Z,2.20
2018-08-09T21:05:31.446Z,1.90
2018-08-09T21:08:00.472Z,6.00
2018-08-09T21:10:29.623Z,2.00
2018-08-09T21:12:58.349Z,2.00
2018-08-09T21:15:26.908Z,4.80
2018-08-09T21:17:55.370Z,2.00
2018-08-09T21:20:24.650Z,2.27
2018-08-09T21:22:53.100Z,1.67
2018-08-09T21:25:21.618Z,1.67
2018-08-09T21:27:50.385Z,4.73
2018-08-09T21:30:20.223Z,1.57
2018-08-09T21:32:49.195Z,3.13
2018-08-09T21:35:17.724Z,1.70
2018-08-09T21:37:46.479Z,1.70
2018-08-09T21:40:15.447Z,1.90
2018-08-09T21:42:44.578Z,1.90
2018-08-09T21:45:15.416Z,2.70
2018-08-09T21:47:43.872Z,2.33
2018-08-09T21:50:15.876Z,1.70
2018-08-09T21:52:44.383Z,1.40
2018-08-09T21:55:13.553Z,1.93
2018-08-09T21:57:43.559Z,3.37
2018-08-09T22:00:52.574Z,2.60
2018-08-09T22:03:24.897Z,1.77
2018-08-09T22:05:58.727Z,1.60
2018-08-09T22:08:32.983Z,1.67
2018-08-09T22:11:08.257Z,1.80
2018-08-09T22:13:42.008Z,1.77
2018-08-09T22:16:15.810Z,2.60
2018-08-09T22:18:49.715Z,1.90
2018-08-09T22:21:24.050Z,1.83
2018-08-09T22:23:52.615Z,1.67
2018-08-09T22:26:21.129Z,1.43
2018-08-09T22:28:49.624Z,1.70
2018-08-09T22:31:19.296Z,1.77
2018-08-09T22:33:47.785Z,1.90
2018-08-09T22:36:16.322Z,2.90
2018-08-09T22:38:44.804Z,2.30
2018-08-09T22:41:13.236Z,1.33
2018-08-09T22:43:41.732Z,1.40
2018-08-09T22:46:10.157Z,2.00
2018-08-09T22:48:38.631Z,4.40
2018-08-09T22:51:07.280Z,1.57
2018-08-09T22:53:36.181Z,1.60
2018-08-09T22:56:04.722Z,1.93
2018-08-09T22:58:34.254Z,1.60
2018-08-09T23:01:02.758Z,1.63
2018-08-09T23:03:31.310Z,1.77
2018-08-09T23:05:59.685Z,2.20
2018-08-09T23:08:28.119Z,1.40
2018-08-09T23:10:56.597Z,2.83
2018-08-09T23:13:25.008Z,2.97
2018-08-09T23:15:53.523Z,2.00
2018-08-09T23:18:22.035Z,1.70
2018-08-09T23:20:50.460Z,1.70
2018-08-09T23:23:18.920Z,1.90
2018-08-09T23:25:47.341Z,2.00
2018-08-09T23:28:15.960Z,2.35
2018-08-09T23:30:44.408Z,1.98
2018-08-09T23:33:12.857Z,1.60
2018-08-09T23:35:41.307Z,2.93
2018-08-09T23:38:09.741Z,1.30
2018-08-09T23:40:38.319Z,2.10
2018-08-09T23:43:06.746Z,1.73
2018-08-09T23:45:35.111Z,1.75
2018-08-09T23:48:03.603Z,1.70
2018-08-09T23:50:31.974Z,1.47
2018-08-09T23:53:00.404Z,1.67
2018-08-09T23:55:29.154Z,1.55
2018-08-09T23:57:57.682Z,1.37
